BSA weather

Barbosa Airport
Barbosa, Santander Department, Colombia

Public forecast

Using degrees Celsius for public forecast. Weather courtesy of forecast.io.

METAR (pilot weather report)

Report is more than 6 hours old.

Closest report is YariguĂ­es Airport, 65.9 nm (122.1 km) N. Retrieved 2019/03/24 23:00 UTC (6 hours ago):

SKEJ 242300Z 20003KT 9999 FEW025 BKN200 31/24 A2977

TAF (pilot weather forecast)

Forecast is more than 12 hours old.

Closest forecast is Palonegro Airport, 75.5 nm (139.7 km) NNE. Retrieved 2019/03/24 12:00 UTC (17 hours ago):

TAF SKBG 241100Z 2412/2512 VRB02KT 9999 SCT015 SCT080 TEMPO 2412/2413 8000 VCFG -DZ SCT007 BECMG 2414/2416 32008KT TEMPO 2419/2422 7000 RA SCT013TCU TEMPO 2500/2503 8000 VCFG -DZ SCT012 BECMG 2504/2506 00000KT TEMPO 2509/2512 7000 VCFG SCT007 TX25/2419Z TN18/2511Z